Main page
METAR-TAF:

METAR-TAF

Airports :

Henri Coandă International Airport

Bucharest, Romania

latitude: 44-33N, longitude: 026-06E, elevation: 95 m

Current weather observation

The report was made 36 minutes ago, at 16:30 UTC
Wind 12 kt from the Southeast
Temperature 24°C
Humidity 25%
Pressure 1014 hPa
Visibility 10 km or more
no clouds below 1500 m and no cumulonimbus

METAR: LROP 211630Z 13012KT CAVOK 24/03 Q1014 NOSIG

Time: 20:06 (17:06 UTC)

Forecast

The report was made 6 hours and 6 minutes ago, at 11:00 UTC
Forecast valid from 21 at 12 UTC to 22 at 12 UTC
Wind 12 kt from the East/Southeast
Visibility 10 km or more
no clouds below 1500 m and no cumulonimbus
Becoming
from 21 at 22 UTC to 22 at 00 UTC
Wind 8 kt from the East/Northeast
Probability 40% :
Temporary
from 22 at 04 UTC to 22 at 11 UTC
Visibility: 5000 m
Scattered clouds at a height of 4000 ft, Cumulonimbus.
rain showers,

TAF: LROP 211100Z 2112/2212 12012KT CAVOK BECMG 2122/2200 07008KT PROB40 TEMPO 2204/2211 5000 SHRA SCT040CB

Weather observations and forecasts of more than 4000 airports (METAR and TAF reports).

The available stations are represented by yellow and red dots on the map.

Hover mouse over dot to see the name of the station.

Then click to see weather observations and forecasts.

To change the map : click on the green buttons with a black cross to zoom in, on the green button with a dash to zoom out, or on the green arrows for adjacent maps.


METAR-TAF: